Time;durP1;ratioP1;P1;durP2;ratioP2;P2;SDS_P1;SDS_P2;PMS_P1;PMS_P2;Temp;Humidity;BMP_temperature;BMP_pressure;BME280_temperature;BME280_humidity;BME280_pressure;Samples;Min_cycle;Max_cycle;Signal;HPM_P1;HPM_P2
2021/12/07 00:02:17;;;;;;;26.52;11.05;;;;;;;1.15;100.00;98541.16;1661516;85;21562;-77
2021/12/07 00:04:51;;;;;;;27.00;10.60;;;;;;;1.15;100.00;98543.86;1656119;85;21103;-73
2021/12/07 00:07:21;;;;;;;26.50;10.65;;;;;;;1.15;100.00;98552.52;1655798;84;22351;-73
2021/12/07 00:09:50;;;;;;;34.48;12.33;;;;;;;1.14;100.00;98563.88;1677230;85;21520;-73
2021/12/07 00:12:33;;;;;;;27.75;10.80;;;;;;;1.14;100.00;98563.88;1657887;85;21571;-69
2021/12/07 00:15:03;;;;;;;29.77;11.48;;;;;;;1.14;100.00;98563.88;1657711;85;21042;-71
2021/12/07 00:17:33;;;;;;;41.90;12.68;;;;;;;1.15;100.00;98565.48;1661079;84;21009;-72
2021/12/07 00:20:02;;;;;;;33.85;11.30;;;;;;;1.16;100.00;98564.91;1656703;84;21169;-72
2021/12/07 00:22:32;;;;;;;29.02;13.18;;;;;;;1.15;100.00;98566.03;1658978;85;20953;-73
2021/12/07 00:25:08;;;;;;;26.60;11.53;;;;;;;1.16;100.00;98571.67;1659087;85;21032;-73
2021/12/07 00:27:41;;;;;;;30.95;11.35;;;;;;;1.19;100.00;98567.06;1679803;85;21057;-73
2021/12/07 00:30:13;;;;;;;30.60;12.25;;;;;;;1.21;100.00;98575.16;1675496;84;21077;-74
2021/12/07 00:33:06;;;;;;;32.75;11.48;;;;;;;1.23;100.00;98582.45;1669164;85;21146;-72
2021/12/07 00:35:33;;;;;;;31.02;12.35;;;;;;;1.26;100.00;98582.44;1669974;85;20938;-73
2021/12/07 00:37:58;;;;;;;31.80;10.28;;;;;;;1.28;100.00;98581.61;1654204;85;20913;-73
2021/12/07 00:40:28;;;;;;;32.10;10.85;;;;;;;1.26;100.00;98573.78;1669277;85;20975;-72
2021/12/07 00:42:59;;;;;;;30.02;10.08;;;;;;;1.25;100.00;98581.63;1651935;85;20932;-72
2021/12/07 00:45:32;;;;;;;28.60;10.05;;;;;;;1.24;100.00;98579.20;1655966;85;21552;-72
2021/12/07 00:48:02;;;;;;;23.02;8.55;;;;;;;1.24;100.00;98581.91;1659646;85;20950;-72
2021/12/07 00:50:31;;;;;;;27.07;11.08;;;;;;;1.25;100.00;98584.88;1661843;85;21590;-70
2021/12/07 00:53:05;;;;;;;22.22;9.78;;;;;;;1.24;100.00;98584.06;1656267;85;21736;-70
2021/12/07 00:55:39;;;;;;;;;;;;;;;1.24;100.00;98588.66;1660151;85;21012;-70
2021/12/07 00:58:17;;;;;;;20.20;8.20;;;;;;;1.28;100.00;98581.61;1667038;85;21154;-71
2021/12/07 01:00:50;;;;;;;21.35;8.23;;;;;;;1.28;100.00;98588.38;1685598;84;20905;-71
2021/12/07 01:03:21;;;;;;;18.80;8.03;;;;;;;1.29;100.00;98585.39;1664798;85;20909;-71
2021/12/07 01:05:51;;;;;;;18.07;8.00;;;;;;;1.31;100.00;98579.16;1654063;85;21028;-71
2021/12/07 01:08:47;;;;;;;21.80;8.85;;;;;;;1.35;100.00;98570.50;1655085;84;21611;-71
2021/12/07 01:25:01;;;;;;;21.37;9.38;;;;;;;1.39;100.00;98581.02;1642280;86;21210;-70
2021/12/07 01:27:31;;;;;;;26.48;11.78;;;;;;;1.37;100.00;98569.13;1662119;84;21582;-70
2021/12/07 01:31:06;;;;;;;26.40;11.45;;;;;;;1.34;100.00;98564.28;1661412;84;21084;-70
2021/12/07 01:32:56;;;;;;;37.48;15.68;;;;;;;1.35;100.00;98558.33;1656605;85;21021;-70
2021/12/07 01:35:44;;;;;;;45.08;17.57;;;;;;;1.34;100.00;98552.11;1653665;84;21060;-70
2021/12/07 02:00:00;;;;;;;26.42;12.33;;;;;;;1.27;100.00;98565.12;1675553;84;20972;-69
2021/12/07 02:02:31;;;;;;;27.87;13.38;;;;;;;1.29;100.00;98563.77;1655483;85;21053;-70
2021/12/07 02:04:59;;;;;;;39.25;15.53;;;;;;;1.30;100.00;98568.63;1670298;84;21214;-71
2021/12/07 02:07:28;;;;;;;37.55;14.33;;;;;;;1.26;100.00;98562.97;1656411;85;21590;-70
2021/12/07 02:10:03;;;;;;;45.08;16.95;;;;;;;1.27;100.00;98560.53;1652225;85;20985;-70
2021/12/07 02:12:40;;;;;;;49.70;18.40;;;;;;;1.30;100.00;98556.46;1659509;85;21694;-71
2021/12/07 02:15:04;;;;;;;43.87;17.20;;;;;;;1.29;100.00;98559.70;1664883;84;20956;-70
2021/12/07 02:17:37;;;;;;;41.70;16.35;;;;;;;1.24;100.00;98562.44;1654392;84;20945;-70
2021/12/07 02:20:11;;;;;;;40.98;16.00;;;;;;;1.19;100.00;98573.28;1655527;84;21685;-73
2021/12/07 02:22:39;;;;;;;31.70;13.50;;;;;;;1.15;100.00;98585.77;1656541;85;21113;-73
2021/12/07 02:25:15;;;;;;;29.10;13.30;;;;;;;1.15;100.00;98586.30;1655468;85;21727;-73
2021/12/07 02:27:43;;;;;;;30.60;12.85;;;;;;;1.13;100.00;98579.83;1658062;84;21017;-73
2021/12/07 02:30:14;;;;;;;30.17;12.58;;;;;;;1.10;100.00;98578.22;1664579;85;21608;-71
2021/12/07 02:32:52;;;;;;;28.15;11.78;;;;;;;1.09;100.00;98589.58;1652912;85;20940;-71
2021/12/07 02:35:27;;;;;;;31.60;13.32;;;;;;;1.08;100.00;98583.90;1662715;85;21591;-70
2021/12/07 02:37:57;;;;;;;29.35;12.68;;;;;;;1.08;100.00;98589.30;1656445;85;21101;-71
2021/12/07 02:40:24;;;;;;;33.65;12.75;;;;;;;1.06;100.00;98575.80;1648434;85;21037;-70
2021/12/07 02:42:54;;;;;;;37.53;14.75;;;;;;;1.07;100.00;98586.88;1659370;84;21186;-73
2021/12/07 02:45:24;;;;;;;45.52;15.32;;;;;;;1.06;100.00;98591.48;1657094;85;20906;-73
2021/12/07 02:47:53;;;;;;;33.53;13.25;;;;;;;1.08;100.00;98585.25;1661972;85;21187;-74
2021/12/07 02:50:24;;;;;;;40.63;14.68;;;;;;;1.14;100.00;98576.03;1659295;85;20974;-75
2021/12/07 02:52:53;;;;;;;38.42;13.08;;;;;;;1.15;100.00;98572.25;1667786;85;21177;-74
2021/12/07 02:55:31;;;;;;;39.23;13.53;;;;;;;1.12;100.00;98561.98;1660329;85;21563;-74
2021/12/07 02:58:07;;;;;;;31.70;12.65;;;;;;;1.09;100.00;98570.66;1638677;86;21478;-74
2021/12/07 03:00:47;;;;;;;32.40;13.70;;;;;;;1.08;100.00;98566.88;1648760;86;21559;-74
2021/12/07 03:03:11;;;;;;;34.88;12.53;;;;;;;1.05;100.00;98570.94;1659338;85;20988;-74
2021/12/07 03:09:04;;;;;;;31.62;12.90;;;;;;;1.02;100.00;98584.20;1655207;85;21182;-72
2021/12/07 03:28:16;;;;;;;40.65;16.17;;;;;;;0.93;100.00;98596.13;1648359;85;21008;-73
2021/12/07 03:30:48;;;;;;;44.42;16.50;;;;;;;0.92;100.00;98599.91;1670877;85;21013;-72
2021/12/07 03:33:17;;;;;;;48.30;17.15;;;;;;;0.90;100.00;98601.53;1662136;85;21444;-72
2021/12/07 03:35:48;;;;;;;43.48;16.95;;;;;;;0.90;100.00;98604.78;1674470;85;21213;-71
2021/12/07 03:38:20;;;;;;;43.17;16.60;;;;;;;0.89;100.00;98603.97;1661476;85;20939;-72
2021/12/07 03:40:50;;;;;;;46.13;16.90;;;;;;;0.90;100.00;98608.29;1658311;85;21156;-72
2021/12/07 03:43:20;;;;;;;40.00;15.70;;;;;;;0.91;100.00;98626.66;1666862;84;21015;-72
2021/12/07 03:45:50;;;;;;;40.20;14.43;;;;;;;0.91;100.00;98634.77;1667650;85;21052;-73
2021/12/07 03:48:20;;;;;;;40.75;15.32;;;;;;;0.90;100.00;98635.86;1657999;85;22078;-73
2021/12/07 03:50:53;;;;;;;44.70;16.20;;;;;;;0.92;100.00;98629.63;1672689;85;20922;-73
2021/12/07 03:53:27;;;;;;;37.78;14.13;;;;;;;0.95;100.00;98623.68;1662926;84;32510;-73
2021/12/07 03:55:56;;;;;;;30.45;12.28;;;;;;;0.98;100.00;98619.08;1645846;85;21115;-73
2021/12/07 03:58:33;;;;;;;42.85;15.93;;;;;;;0.98;100.00;98620.42;1672798;84;21037;-70
2021/12/07 04:01:06;;;;;;;44.00;15.75;;;;;;;0.97;100.00;98621.52;1638470;83;20913;-73
2021/12/07 04:03:36;;;;;;;42.38;16.07;;;;;;;0.96;100.00;98619.35;1664925;85;21065;-71
2021/12/07 04:06:06;;;;;;;42.95;16.10;;;;;;;0.94;100.00;98617.47;1654637;85;21045;-71
2021/12/07 04:08:42;;;;;;;42.40;14.43;;;;;;;0.95;100.00;98617.73;1654690;85;21040;-73
2021/12/07 04:11:18;;;;;;;48.42;15.93;;;;;;;0.98;100.00;98619.08;1672590;85;20989;-74
2021/12/07 04:13:50;;;;;;;109.35;25.27;;;;;;;1.04;100.00;98621.22;1641201;86;20994;-73
2021/12/07 04:16:25;;;;;;;62.62;20.70;;;;;;;1.01;100.00;98620.42;1665917;85;21508;-72
2021/12/07 04:18:58;;;;;;;75.55;22.00;;;;;;;0.99;100.00;98623.39;1649368;85;21575;-74
2021/12/07 04:21:30;;;;;;;91.63;26.20;;;;;;;0.99;100.00;98616.64;1653401;85;21013;-73
2021/12/07 04:23:59;;;;;;;90.95;27.52;;;;;;;1.02;100.00;98612.03;1659363;85;21053;-71
2021/12/07 04:26:28;;;;;;;77.80;25.02;;;;;;;0.98;100.00;98620.42;1659767;85;21166;-74
2021/12/07 04:29:03;;;;;;;78.78;25.02;;;;;;;0.96;100.00;98624.76;1660304;85;21009;-72
2021/12/07 04:31:34;;;;;;;53.08;19.92;;;;;;;0.97;100.00;98628.27;1668798;85;21081;-72
2021/12/07 04:34:00;;;;;;;45.40;18.82;;;;;;;1.00;100.00;98637.17;1653072;85;20957;-80
2021/12/07 04:36:35;;;;;;;35.45;16.67;;;;;;;0.98;100.00;98637.99;1635383;86;21454;-73
2021/12/07 04:39:05;;;;;;;34.08;14.87;;;;;;;0.95;100.00;98639.89;1656794;85;21543;-73
2021/12/07 04:41:33;;;;;;;33.50;15.95;;;;;;;0.92;100.00;98640.44;1660029;85;21056;-72
2021/12/07 04:44:06;;;;;;;59.27;19.05;;;;;;;0.90;100.00;98638.55;1655262;85;21002;-75
2021/12/07 04:46:50;;;;;;;74.15;19.77;;;;;;;0.88;100.00;98638.02;1649166;83;21066;-76
2021/12/07 04:59:56;;;;;;;37.03;16.90;;;;;;;0.86;100.00;98646.41;1637772;86;21047;-85
2021/12/07 05:02:22;;;;;;;34.45;17.35;;;;;;;0.82;100.00;98643.17;1624929;86;21014;-84
2021/12/07 05:04:49;;;;;;;37.00;16.05;;;;;;;0.81;100.00;98649.66;1660721;85;21138;-72
2021/12/07 05:07:26;;;;;;;36.77;16.00;;;;;;;0.80;100.00;98651.55;1658501;85;21528;-77
2021/12/07 05:14:45;;;;;;;34.18;14.40;;;;;;;0.81;100.00;98657.77;1654593;85;21032;-83
2021/12/07 05:17:43;;;;;;;38.50;15.90;;;;;;;0.79;100.00;98658.58;1651710;85;20958;-76
2021/12/07 05:39:34;;;;;;;31.15;14.18;;;;;;;0.73;100.00;98617.25;1654374;86;20950;-89
2021/12/07 05:42:02;;;;;;;28.65;13.03;;;;;;;0.73;100.00;98617.80;1633615;87;20986;-82
2021/12/07 05:44:30;;;;;;;32.58;14.63;;;;;;;0.73;100.00;98621.30;1631434;88;22073;-80
2021/12/07 05:47:01;;;;;;;30.57;15.25;;;;;;;0.73;100.00;98617.80;1631362;88;21069;-84
2021/12/07 05:49:31;;;;;;;31.25;14.03;;;;;;;0.72;100.00;98621.03;1631407;88;20998;-83
2021/12/07 05:52:01;;;;;;;35.98;14.03;;;;;;;0.73;100.00;98618.61;1624759;86;21011;-71
2021/12/07 05:54:31;;;;;;;35.50;14.43;;;;;;;0.72;100.00;98618.34;1631660;86;21002;-79
2021/12/07 05:56:58;;;;;;;38.00;14.90;;;;;;;0.74;100.00;98624.81;1631465;87;21538;-81
2021/12/07 05:59:31;;;;;;;28.02;10.85;;;;;;;0.75;100.00;98629.95;1607885;88;21013;-79
2021/12/07 06:01:59;;;;;;;27.70;11.90;;;;;;;0.73;100.00;98647.52;1631660;86;21621;-73
2021/12/07 06:04:30;;;;;;;21.00;9.70;;;;;;;0.69;100.00;98649.95;1621823;88;21051;-75
2021/12/07 06:07:04;;;;;;;32.05;13.38;;;;;;;0.68;100.00;98655.62;1651608;84;20925;-76
2021/12/07 06:09:31;;;;;;;30.80;11.85;;;;;;;0.67;100.00;98649.41;1648522;86;21834;-76
2021/12/07 06:12:03;;;;;;;31.60;12.47;;;;;;;0.63;100.00;98647.80;1641036;86;21184;-76
2021/12/07 06:14:41;;;;;;;29.15;11.90;;;;;;;0.63;100.00;98648.34;1644390;86;21031;-75
2021/12/07 06:17:06;;;;;;;29.80;13.18;;;;;;;0.64;100.00;98645.91;1645827;85;21052;-75
2021/12/07 06:19:40;;;;;;;26.80;12.50;;;;;;;0.65;100.00;98650.22;1643014;86;21095;-75
2021/12/07 06:22:08;;;;;;;31.80;13.43;;;;;;;0.66;100.00;98649.95;1662717;84;21096;-74
2021/12/07 06:24:43;;;;;;;46.95;17.90;;;;;;;0.68;100.00;98659.13;1663531;84;21053;-73
2021/12/07 06:27:14;;;;;;;41.02;16.25;;;;;;;0.67;100.00;98662.91;1644456;86;21675;-73
2021/12/07 06:29:43;;;;;;;38.33;15.75;;;;;;;0.65;100.00;98655.09;1639143;85;20995;-72
2021/12/07 06:32:14;;;;;;;43.45;16.15;;;;;;;0.69;100.00;98654.00;1631112;86;21026;-73
2021/12/07 06:34:47;;;;;;;37.58;16.90;;;;;;;0.75;100.00;98652.09;1637374;86;21579;-74
2021/12/07 06:37:21;;;;;;;33.60;15.18;;;;;;;0.82;100.00;98658.03;1630881;86;21686;-73
2021/12/07 06:39:52;;;;;;;36.60;17.73;;;;;;;0.84;100.00;98659.91;1637086;86;21170;-73
2021/12/07 06:42:24;;;;;;;42.60;18.15;;;;;;;0.84;100.00;98657.22;1640944;86;21045;-75
2021/12/07 06:44:54;;;;;;;43.10;20.40;;;;;;;0.85;100.00;98667.75;1629293;86;21495;-75
2021/12/07 06:47:24;;;;;;;36.75;17.70;;;;;;;0.86;100.00;98664.50;1637710;86;21570;-74
2021/12/07 06:50:00;;;;;;;38.58;15.30;;;;;;;0.90;100.00;98662.88;1611305;86;21054;-74
2021/12/07 06:52:28;;;;;;;29.80;14.33;;;;;;;0.92;100.00;98665.57;1626274;86;21018;-74
2021/12/07 06:55:04;;;;;;;32.45;14.70;;;;;;;0.93;100.00;98662.33;1628007;87;20887;-73
2021/12/07 06:57:33;;;;;;;32.35;15.50;;;;;;;0.94;100.00;98672.05;1627028;86;21161;-74
2021/12/07 07:00:09;;;;;;;30.82;14.60;;;;;;;0.97;100.00;98669.61;1610736;87;21606;-75
2021/12/07 07:02:42;;;;;;;28.52;14.20;;;;;;;0.99;100.00;98667.45;1610101;87;21113;-75
2021/12/07 07:05:14;;;;;;;24.65;13.40;;;;;;;1.01;100.00;98675.28;1610529;86;21653;-74
2021/12/07 07:07:46;;;;;;;27.65;14.35;;;;;;;0.99;100.00;98674.20;1616498;86;21112;-74
2021/12/07 07:10:19;;;;;;;28.35;15.23;;;;;;;0.96;100.00;98676.64;1627853;86;21609;-75
2021/12/07 07:12:50;;;;;;;26.42;14.78;;;;;;;0.98;100.00;98678.53;1623918;86;22064;-75
2021/12/07 07:15:17;;;;;;;26.17;13.72;;;;;;;0.97;100.00;98686.38;1618198;86;21047;-76
2021/12/07 07:17:45;;;;;;;24.50;12.37;;;;;;;0.96;100.00;98695.56;1613248;86;22587;-76
2021/12/07 07:20:19;;;;;;;19.42;11.38;;;;;;;0.95;100.00;98700.70;1619125;85;21159;-75
2021/12/07 07:22:51;;;;;;;19.20;10.48;;;;;;;0.96;100.00;98699.61;1625395;86;21060;-75
2021/12/07 07:25:24;;;;;;;18.52;9.95;;;;;;;0.99;100.00;98690.42;1610158;86;21555;-76
2021/12/07 07:27:58;;;;;;;19.40;9.90;;;;;;;1.01;100.00;98691.50;1612460;87;21549;-82
2021/12/07 07:30:32;;;;;;;20.52;10.60;;;;;;;1.00;100.00;98689.87;1657557;85;21024;-77
2021/12/07 07:33:00;;;;;;;22.87;10.30;;;;;;;0.99;100.00;98696.37;1654252;85;21119;-79
2021/12/07 07:35:32;;;;;;;21.12;11.03;;;;;;;1.02;100.00;98693.66;1656670;85;21604;-78
2021/12/07 07:38:01;;;;;;;17.77;10.93;;;;;;;1.02;100.00;98686.36;1658890;85;21044;-74
2021/12/07 07:40:36;;;;;;;21.12;10.58;;;;;;;1.00;100.00;98688.53;1656405;85;21013;-72
2021/12/07 07:43:04;;;;;;;16.70;9.17;;;;;;;0.96;100.00;98682.86;1653664;85;21021;-73
2021/12/07 07:45:32;;;;;;;17.50;8.20;;;;;;;0.94;100.00;98695.02;1656054;84;21191;-76
2021/12/07 07:48:02;;;;;;;16.67;8.90;;;;;;;0.92;100.00;98696.65;1680233;83;21000;-82
2021/12/07 07:50:36;;;;;;;20.48;11.65;;;;;;;0.89;100.00;98689.09;1651066;84;20957;-77
2021/12/07 07:53:04;;;;;;;22.90;12.60;;;;;;;0.88;100.00;98701.52;1662821;84;20996;-80
2021/12/07 07:55:38;;;;;;;21.73;12.50;;;;;;;0.87;100.00;98714.77;1649711;84;20984;-76
2021/12/07 07:58:09;;;;;;;21.70;11.57;;;;;;;0.86;100.00;98721.25;1649339;85;20940;-79
2021/12/07 08:00:46;;;;;;;18.77;9.80;;;;;;;0.89;100.00;98712.59;1657499;84;20953;-69
2021/12/07 08:03:15;;;;;;;20.97;10.35;;;;;;;0.89;100.00;98705.30;1656715;85;23311;-75
2021/12/07 08:05:44;;;;;;;19.62;9.33;;;;;;;0.89;100.00;98711.25;1659348;85;21565;-74
2021/12/07 08:08:15;;;;;;;18.00;9.65;;;;;;;0.89;100.00;98720.70;1661733;85;21125;-73
2021/12/07 08:10:50;;;;;;;18.00;9.85;;;;;;;0.88;100.00;98726.66;1656922;85;21017;-72
2021/12/07 08:13:25;;;;;;;18.05;10.10;;;;;;;0.87;100.00;98730.98;1656578;85;21068;-72
2021/12/07 08:15:55;;;;;;;25.72;11.15;;;;;;;0.86;100.00;98727.46;1655393;85;21435;-77
2021/12/07 08:18:25;;;;;;;20.55;10.18;;;;;;;0.89;100.00;98735.02;1652749;85;20916;-86
2021/12/07 08:20:58;;;;;;;19.82;10.43;;;;;;;0.92;100.00;98729.62;1657402;85;20998;-91
2021/12/07 08:23:31;;;;;;;19.00;10.28;;;;;;;0.90;100.00;98734.48;1657682;84;20918;-81
2021/12/07 08:26:00;;;;;;;23.75;10.60;;;;;;;0.91;100.00;98731.52;1666368;85;21136;-84
2021/12/07 08:28:30;;;;;;;20.82;9.90;;;;;;;0.90;100.00;98731.24;1655565;85;21168;-83
2021/12/07 08:31:03;;;;;;;21.70;9.53;;;;;;;0.92;100.00;98726.92;1662306;85;27012;-85
2021/12/07 08:33:34;;;;;;;26.27;11.38;;;;;;;0.89;100.00;98716.11;1673584;85;20973;-76
2021/12/07 08:36:04;;;;;;;24.82;11.48;;;;;;;0.87;100.00;98718.27;1653810;85;26779;-76
2021/12/07 08:38:33;;;;;;;24.50;11.88;;;;;;;0.87;100.00;98722.33;1656969;85;21086;-68
2021/12/07 08:41:06;;;;;;;20.37;10.88;;;;;;;0.84;100.00;98720.71;1667901;85;21192;-68
2021/12/07 08:43:42;;;;;;;25.15;11.18;;;;;;;0.79;100.00;98719.37;1660162;85;21083;-67
2021/12/07 08:46:06;;;;;;;;;;;;;;;0.73;100.00;98711.00;1656094;85;21077;-76
2021/12/07 08:48:35;;;;;;;24.40;10.75;;;;;;;0.68;100.00;98703.70;1663364;85;21100;-77
2021/12/07 08:51:09;;;;;;;24.35;10.53;;;;;;;0.63;100.00;98702.36;1656920;85;21093;-74
2021/12/07 08:53:38;;;;;;;23.15;10.80;;;;;;;0.61;100.00;98705.33;1664261;85;23629;-72
2021/12/07 09:01:39;;;;;;;21.05;9.40;;;;;;;0.65;100.00;98695.61;1662948;85;21134;-77
2021/12/07 09:04:07;;;;;;;22.77;10.30;;;;;;;0.65;100.00;98683.45;1638716;86;22563;-80
2021/12/07 09:06:38;;;;;;;21.48;9.90;;;;;;;0.64;100.00;98682.37;1633327;85;22193;-79
2021/12/07 09:09:07;;;;;;;24.27;9.95;;;;;;;0.65;100.00;98676.70;1628275;86;21208;-71
2021/12/07 09:11:36;;;;;;;22.82;8.88;;;;;;;0.66;100.00;98674.27;1636494;86;21066;-79
2021/12/07 09:14:09;;;;;;;19.42;8.83;;;;;;;0.66;100.00;98679.66;1628122;86;21572;-83
2021/12/07 09:16:39;;;;;;;19.32;8.43;;;;;;;0.64;100.00;98676.42;1629435;85;21070;-86
2021/12/07 09:19:11;;;;;;;17.67;8.20;;;;;;;0.64;100.00;98676.42;1650663;84;21089;-89
2021/12/07 09:21:48;;;;;;;17.65;7.92;;;;;;;0.65;100.00;98686.69;1634898;86;21082;-77
2021/12/07 09:24:15;;;;;;;19.48;8.73;;;;;;;0.64;100.00;98675.08;1632661;86;21075;-78
2021/12/07 09:26:46;;;;;;;21.90;9.05;;;;;;;0.64;100.00;98675.08;1651717;84;21120;-83
2021/12/07 09:29:16;;;;;;;16.87;8.50;;;;;;;0.64;100.00;98669.67;1661270;85;20962;-80
2021/12/07 09:31:50;;;;;;;16.95;8.03;;;;;;;0.66;100.00;98662.65;1650226;85;21099;-75
2021/12/07 09:34:18;;;;;;;14.95;7.40;;;;;;;0.68;100.00;98659.67;1650880;85;21433;-70
2021/12/07 09:36:48;;;;;;;13.55;7.08;;;;;;;0.70;100.00;98668.31;1609807;87;21548;-69
2021/12/07 09:39:18;;;;;;;13.70;7.33;;;;;;;0.69;100.00;98664.80;1637414;85;20978;-77
2021/12/07 09:41:46;;;;;;;14.70;7.20;;;;;;;0.69;100.00;98658.59;1641247;86;21016;-78
2021/12/07 09:44:13;;;;;;;16.17;7.40;;;;;;;0.66;100.00;98663.45;1643295;86;21555;-77
2021/12/07 09:46:50;;;;;;;14.23;6.83;;;;;;;0.62;100.00;98661.03;1605479;87;20960;-77
2021/12/07 09:49:24;;;;;;;13.68;7.30;;;;;;;0.62;100.00;98659.69;1633195;86;21160;-71
2021/12/07 09:51:54;;;;;;;14.65;7.42;;;;;;;0.62;100.00;98654.28;1643469;86;20979;-70
2021/12/07 09:54:22;;;;;;;14.53;6.80;;;;;;;0.61;100.00;98648.61;1666361;85;20929;-80
2021/12/07 09:56:50;;;;;;;12.20;6.83;;;;;;;0.61;100.00;98651.31;1642924;85;21191;-87
2021/12/07 09:59:19;;;;;;;12.85;7.20;;;;;;;0.62;100.00;98656.98;1653831;85;21140;-81
2021/12/07 10:01:46;;;;;;;11.75;7.33;;;;;;;0.65;100.00;98647.52;1640552;86;21070;-71
2021/12/07 10:04:18;;;;;;;13.50;7.30;;;;;;;0.65;100.00;98649.69;1637983;86;21079;-70
2021/12/07 10:06:49;;;;;;;12.00;6.92;;;;;;;0.65;100.00;98648.33;1660725;85;21598;-73
2021/12/07 10:09:18;;;;;;;12.73;6.75;;;;;;;0.66;100.00;98648.59;1643387;85;21236;-75
2021/12/07 10:11:54;;;;;;;11.65;6.30;;;;;;;0.68;100.00;98655.08;1616392;86;20953;-75
2021/12/07 10:14:21;;;;;;;11.93;7.03;;;;;;;0.71;100.00;98655.08;1635374;86;25144;-75
2021/12/07 10:16:49;;;;;;;13.98;6.87;;;;;;;0.73;100.00;98642.11;1646437;85;21127;-75
2021/12/07 10:19:31;;;;;;;13.80;7.25;;;;;;;0.72;100.00;98658.86;1633071;86;21016;-74
2021/12/07 10:22:08;;;;;;;13.22;6.75;;;;;;;0.73;100.00;98659.66;1630922;86;21603;-74
2021/12/07 10:25:00;;;;;;;10.03;6.45;;;;;;;0.71;100.00;98651.84;1642269;86;21082;-73
2021/12/07 10:27:34;;;;;;;13.03;7.15;;;;;;;0.73;100.00;98643.45;1633492;86;21046;-74
2021/12/07 10:30:07;;;;;;;12.10;7.33;;;;;;;0.69;100.00;98644.55;1637477;86;21055;-77
2021/12/07 10:32:43;;;;;;;10.80;5.83;;;;;;;0.69;100.00;98651.30;1646289;86;21672;-76
2021/12/07 10:35:33;;;;;;;12.50;6.47;;;;;;;0.69;100.00;98647.25;1636093;86;21081;-75
2021/12/07 10:38:18;;;;;;;11.93;7.28;;;;;;;0.70;100.00;98642.11;1632763;86;21002;-74
2021/12/07 10:41:05;;;;;;;11.38;6.58;;;;;;;0.70;100.00;98637.25;1643811;86;21099;-71
2021/12/07 10:43:57;;;;;;;13.65;6.90;;;;;;;0.68;100.00;98636.72;1641201;85;21066;-71
2021/12/07 10:46:40;;;;;;;12.60;6.80;;;;;;;0.65;100.00;98631.31;1658186;84;20965;-76
2021/12/07 10:49:43;;;;;;;9.18;5.47;;;;;;;0.62;100.00;98625.11;1657062;85;21488;-73
2021/12/07 10:52:35;;;;;;;12.50;5.70;;;;;;;0.61;100.00;98622.14;1617594;86;21546;-73
2021/12/07 10:55:18;;;;;;;9.55;5.47;;;;;;;0.58;100.00;98618.09;1599918;86;21400;-77
2021/12/07 10:57:58;;;;;;;10.57;5.53;;;;;;;0.56;100.00;98615.42;1667637;85;20988;-81
2021/12/07 11:00:39;;;;;;;7.80;4.37;;;;;;;0.56;100.00;98622.18;1650751;85;20909;-79
2021/12/07 11:03:13;;;;;;;9.35;5.08;;;;;;;0.55;100.00;98628.66;1648147;85;21051;-76
2021/12/07 11:05:50;;;;;;;7.08;4.60;;;;;;;0.52;100.00;98631.37;1661930;85;21536;-77
2021/12/07 11:08:21;;;;;;;9.43;5.75;;;;;;;0.48;100.00;98626.78;1621112;86;20945;-75
2021/12/07 11:10:52;;;;;;;11.85;5.75;;;;;;;0.48;100.00;98637.04;1659619;84;21937;-75
2021/12/07 11:13:34;;;;;;;12.15;6.60;;;;;;;0.52;100.00;98636.77;1609808;86;21126;-75
2021/12/07 11:16:15;;;;;;;8.88;5.40;;;;;;;0.55;100.00;98624.07;1645888;85;21177;-75
2021/12/07 11:18:40;;;;;;;8.08;5.28;;;;;;;0.56;100.00;98616.23;1638764;85;20955;-77
2021/12/07 11:21:15;;;;;;;11.38;6.47;;;;;;;0.56;100.00;98606.78;1623073;86;20917;-78
2021/12/07 11:23:57;;;;;;;10.45;6.72;;;;;;;0.58;100.00;98608.64;1642641;86;20992;-76
2021/12/07 11:31:52;;;;;;;10.85;6.92;;;;;;;0.53;100.00;98614.63;1610856;87;20910;-75
2021/12/07 11:34:29;;;;;;;8.58;5.30;;;;;;;0.53;100.00;98626.23;1647223;86;21035;-76
2021/12/07 11:37:09;;;;;;;9.83;6.03;;;;;;;0.54;100.00;98636.50;1645959;86;21460;-77
2021/12/07 11:39:46;;;;;;;9.23;5.37;;;;;;;0.53;100.00;98640.28;1627708;86;21069;-78
2021/12/07 11:42:32;;;;;;;9.83;4.58;;;;;;;0.52;100.00;98634.61;1616638;87;20959;-75
2021/12/07 11:45:03;;;;;;;7.85;4.45;;;;;;;0.50;100.00;98637.58;1622748;86;21462;-79
2021/12/07 11:47:59;;;;;;;11.68;5.87;;;;;;;0.45;100.00;98651.09;1633555;85;21020;-76
2021/12/07 11:50:37;;;;;;;7.92;5.40;;;;;;;0.40;100.00;98657.03;1638049;86;21220;-80
2021/12/07 11:53:13;;;;;;;7.72;5.00;;;;;;;0.38;100.00;98666.75;1608924;86;21012;-78
2021/12/07 11:55:47;;;;;;;7.65;4.50;;;;;;;0.39;100.00;98662.16;1644510;85;21566;-78
2021/12/07 11:58:19;;;;;;;10.85;6.05;;;;;;;0.37;100.00;98657.03;1659673;85;21009;-81
2021/12/07 12:00:53;;;;;;;11.63;6.08;;;;;;;0.36;100.00;98652.71;1657482;85;21074;-80
2021/12/07 12:03:26;;;;;;;9.13;5.53;;;;;;;0.37;100.00;98652.98;1656158;85;21077;-80
2021/12/07 12:05:56;;;;;;;11.30;5.62;;;;;;;0.36;100.00;98650.02;1648274;85;21541;-80
2021/12/07 12:08:29;;;;;;;10.28;5.22;;;;;;;0.37;100.00;98645.42;1663457;85;21534;-81
2021/12/07 12:11:03;;;;;;;7.80;4.12;;;;;;;0.37;100.00;98646.23;1655028;85;21092;-81
2021/12/07 12:14:16;;;;;;;8.95;4.55;;;;;;;0.37;100.00;98647.58;1646838;84;21539;-80
2021/12/07 12:17:03;;;;;;;9.95;4.65;;;;;;;0.40;100.00;98648.93;1663289;84;21548;-78
2021/12/07 12:19:57;;;;;;;6.15;3.80;;;;;;;0.41;100.00;98639.20;1665608;85;21071;-77
2021/12/07 12:22:38;;;;;;;8.58;4.20;;;;;;;0.41;100.00;98624.90;1660684;85;21610;-78
2021/12/07 12:25:09;;;;;;;;;;;;;;;0.43;100.00;98633.00;1665060;85;21060;-77
2021/12/07 12:27:43;;;;;;;8.03;5.53;;;;;;;0.42;100.00;98627.33;1660938;85;20164;-81
2021/12/07 12:30:29;;;;;;;10.03;5.05;;;;;;;0.40;100.00;98628.68;1651116;85;20927;-82
2021/12/07 12:33:05;;;;;;;7.92;4.97;;;;;;;0.39;100.00;98636.51;1658914;85;21038;-75
2021/12/07 12:35:42;;;;;;;8.70;5.40;;;;;;;0.39;100.00;98633.81;1654839;85;21177;-75
2021/12/07 12:38:26;;;;;;;7.08;4.22;;;;;;;0.41;100.00;98631.11;1654880;85;21113;-76
2021/12/07 12:41:10;;;;;;;6.05;3.77;;;;;;;0.41;100.00;98636.51;1635737;86;21020;-75
2021/12/07 12:43:51;;;;;;;8.28;4.75;;;;;;;0.40;100.00;98636.23;1652292;85;20994;-74
2021/12/07 12:46:26;;;;;;;7.35;4.30;;;;;;;0.40;100.00;98624.62;1633373;86;21066;-72
2021/12/07 12:48:59;;;;;;;6.67;4.17;;;;;;;0.41;100.00;98623.01;1649174;85;21572;-81
2021/12/07 12:51:33;;;;;;;10.03;4.83;;;;;;;0.39;100.00;98626.52;1655219;83;20942;-72
2021/12/07 12:54:00;;;;;;;7.17;4.45;;;;;;;0.35;100.00;98634.89;1657436;85;21000;-72
2021/12/07 12:56:31;;;;;;;8.48;4.60;;;;;;;0.33;100.00;98627.60;1657455;85;21065;-72
2021/12/07 12:59:04;;;;;;;7.05;4.45;;;;;;;0.32;100.00;98630.84;1668884;85;21093;-79
2021/12/07 13:01:33;;;;;;;7.33;3.52;;;;;;;0.31;100.00;98627.06;1641176;86;21841;-77
2021/12/07 13:04:06;;;;;;;7.00;4.42;;;;;;;0.29;100.00;98625.17;1634043;87;20933;-77
2021/12/07 13:07:05;;;;;;;5.95;4.03;;;;;;;0.26;100.00;98631.92;1662560;86;20916;-77
2021/12/07 13:09:34;;;;;;;6.92;4.12;;;;;;;0.24;100.00;98634.63;1662505;85;21028;-77
2021/12/07 13:12:16;;;;;;;7.80;4.60;;;;;;;0.22;100.00;98642.99;1650696;86;20928;-74
2021/12/07 13:14:53;;;;;;;6.70;4.45;;;;;;;0.22;100.00;98648.93;1662697;86;21521;-74
2021/12/07 13:17:43;;;;;;;7.67;4.22;;;;;;;0.21;100.00;98647.31;1662519;85;20932;-76
2021/12/07 13:20:35;;;;;;;6.33;4.40;;;;;;;0.18;100.00;98654.06;1662516;86;20984;-71
2021/12/07 13:23:11;;;;;;;6.35;4.20;;;;;;;0.18;100.00;98651.90;1662291;84;21007;-73
2021/12/07 13:25:48;;;;;;;7.03;4.33;;;;;;;0.16;100.00;98645.96;1660903;85;21024;-75
2021/12/07 13:28:30;;;;;;;7.65;3.80;;;;;;;0.13;100.00;98647.31;1633089;86;21549;-75
2021/12/07 13:31:18;;;;;;;6.78;4.53;;;;;;;0.11;100.00;98655.41;1663095;85;21039;-76
2021/12/07 13:33:57;;;;;;;6.28;4.03;;;;;;;0.10;100.00;98657.83;1639635;86;21447;-86